createdAt,value
2017-03-14T00:08:00.672Z,14
2017-03-14T00:18:00.736Z,15
2017-03-14T00:28:00.705Z,14
2017-03-14T00:38:00.621Z,14
2017-03-14T00:48:00.716Z,12
2017-03-14T00:58:00.732Z,11
2017-03-14T01:08:00.671Z,11
2017-03-14T01:18:00.766Z,9
2017-03-14T01:28:01.033Z,13
2017-03-14T01:38:00.769Z,12
2017-03-14T01:48:00.755Z,12
2017-03-14T01:58:00.761Z,10
2017-03-14T02:08:00.708Z,10
2017-03-14T02:18:00.783Z,10
2017-03-14T02:28:00.743Z,10
2017-03-14T02:38:00.807Z,10
2017-03-14T02:48:00.760Z,9
2017-03-14T02:58:00.844Z,10
2017-03-14T03:08:00.816Z,9
2017-03-14T03:18:00.745Z,12
2017-03-14T03:28:00.833Z,10
2017-03-14T03:38:00.881Z,13
2017-03-14T03:48:00.886Z,13
2017-03-14T03:58:00.829Z,15
2017-03-14T04:08:00.890Z,13
2017-03-14T04:18:00.826Z,14
2017-03-14T04:28:01.391Z,14
2017-03-14T04:38:00.882Z,15
2017-03-14T04:48:00.949Z,14
2017-03-14T04:58:00.884Z,16
2017-03-14T05:08:00.792Z,16
2017-03-14T05:18:00.868Z,17
2017-03-14T05:28:00.861Z,17
2017-03-14T05:38:00.896Z,18
2017-03-14T05:48:00.852Z,18
2017-03-14T05:58:00.898Z,18
2017-03-14T06:08:00.851Z,20
2017-03-14T06:18:00.949Z,19
2017-03-14T06:28:00.943Z,19
2017-03-14T06:38:00.935Z,19
2017-03-14T06:48:00.940Z,19
2017-03-14T06:58:01.031Z,18
2017-03-14T07:08:01.048Z,18
2017-03-14T07:18:00.966Z,18
2017-03-14T07:28:00.997Z,17
2017-03-14T07:38:00.981Z,16
2017-03-14T07:48:01.070Z,18
2017-03-14T07:58:00.942Z,16
2017-03-14T08:08:01.035Z,15
2017-03-14T08:18:01.099Z,14
2017-03-14T08:28:01.078Z,16
2017-03-14T08:38:01.042Z,16
2017-03-14T08:48:01.144Z,20
2017-03-14T08:58:01.043Z,16
2017-03-14T09:08:01.126Z,15
2017-03-14T09:18:01.061Z,18
2017-03-14T09:28:01.245Z,14
2017-03-14T09:38:01.079Z,18
2017-03-14T09:48:01.165Z,14
2017-03-14T09:58:01.118Z,15
2017-03-14T10:08:01.119Z,16
2017-03-14T10:18:01.150Z,16
2017-03-14T10:28:01.058Z,17
2017-03-14T10:38:01.420Z,13
2017-03-14T10:48:01.067Z,13
2017-03-14T10:58:01.218Z,12
2017-03-14T11:08:01.682Z,11
2017-03-14T11:18:01.173Z,15
2017-03-14T11:28:01.356Z,14
2017-03-14T11:38:01.739Z,11
2017-03-14T11:48:01.131Z,12
2017-03-14T11:58:01.236Z,12
2017-03-14T12:08:01.217Z,10
2017-03-14T12:18:01.202Z,10
2017-03-14T12:28:01.116Z,11
2017-03-14T12:38:01.114Z,10
2017-03-14T12:48:01.158Z,12
2017-03-14T12:58:01.111Z,12
2017-03-14T13:08:01.147Z,12
2017-03-14T13:18:01.217Z,12
2017-03-14T13:28:01.257Z,11
2017-03-14T13:38:01.194Z,12
2017-03-14T13:48:01.273Z,12
2017-03-14T13:58:01.207Z,12
2017-03-14T14:08:01.249Z,12
2017-03-14T14:18:01.218Z,13
2017-03-14T14:28:01.247Z,11
2017-03-14T14:38:01.253Z,12
2017-03-14T14:48:01.334Z,12
2017-03-14T14:58:01.311Z,11
2017-03-14T15:08:01.367Z,11
2017-03-14T15:18:01.348Z,11
2017-03-14T15:28:01.317Z,12
2017-03-14T15:38:01.383Z,13
2017-03-14T15:48:01.507Z,13
2017-03-14T15:58:01.412Z,11
2017-03-14T16:08:01.558Z,12
2017-03-14T16:18:01.435Z,12
2017-03-14T16:28:01.531Z,11
2017-03-14T16:38:01.431Z,12
2017-03-14T16:48:01.554Z,12
2017-03-14T16:58:01.446Z,12
2017-03-14T17:08:01.405Z,12
2017-03-14T17:18:01.498Z,11
2017-03-14T17:28:01.492Z,13
2017-03-14T17:38:01.500Z,12
2017-03-14T17:48:01.431Z,13
2017-03-14T17:58:01.535Z,14
2017-03-14T18:08:01.586Z,14
2017-03-14T18:18:01.582Z,14
2017-03-14T18:28:11.413Z,13
2017-03-14T18:38:01.583Z,14
2017-03-14T18:48:01.597Z,13
2017-03-14T18:58:01.579Z,14
2017-03-14T19:08:01.522Z,13
2017-03-14T19:18:01.556Z,14
2017-03-14T19:28:01.573Z,18
2017-03-14T19:38:01.617Z,21
2017-03-14T19:48:01.629Z,26
2017-03-14T19:58:01.712Z,29
2017-03-14T20:08:01.656Z,31
2017-03-14T20:18:01.710Z,31
2017-03-14T20:28:01.715Z,33
2017-03-14T20:38:01.637Z,29
2017-03-14T20:48:01.829Z,30
2017-03-14T20:58:01.672Z,27
2017-03-14T21:08:01.752Z,28
2017-03-14T21:18:01.726Z,28
2017-03-14T21:28:01.654Z,28
2017-03-14T21:38:01.814Z,28
2017-03-14T21:48:01.708Z,27
2017-03-14T21:58:09.683Z,29
2017-03-14T22:08:01.801Z,30
2017-03-14T22:18:01.792Z,30
2017-03-14T22:28:01.775Z,31
2017-03-14T22:38:01.833Z,30
2017-03-14T22:48:01.797Z,29
2017-03-14T22:58:01.807Z,29
2017-03-14T23:08:01.788Z,31
2017-03-14T23:18:01.831Z,33
2017-03-14T23:28:01.890Z,29
2017-03-14T23:38:02.149Z,30
2017-03-14T23:48:01.925Z,35
2017-03-14T23:58:01.861Z,36
